Time;durP1;ratioP1;P1;durP2;ratioP2;P2;SDS_P1;SDS_P2;PMS_P1;PMS_P2;Temp;Humidity;BMP_temperature;BMP_pressure;BME280_temperature;BME280_humidity;BME280_pressure;Samples;Min_cycle;Max_cycle;Signal;HPM_P1;HPM_P2
2023/07/17 00:00:57;;;;;;;0.50;0.50;;;16.40;99.90;;;;;;5035542;28;20202;-68
2023/07/17 00:03:22;;;;;;;0.83;0.83;;;16.30;99.90;;;;;;5037125;28;20217;-68
2023/07/17 00:05:50;;;;;;;1.07;0.90;;;16.30;99.90;;;;;;5036932;28;20253;-68
2023/07/17 00:08:16;;;;;;;1.07;1.00;;;16.40;99.90;;;;;;5036895;28;20238;-68
2023/07/17 00:10:43;;;;;;;1.00;1.00;;;16.50;99.90;;;;;;5036698;28;20413;-68
2023/07/17 00:13:09;;;;;;;1.60;1.43;;;16.60;99.90;;;;;;5036722;28;20178;-68
2023/07/17 00:15:34;;;;;;;0.60;0.60;;;16.50;99.90;;;;;;5036747;28;20410;-68
2023/07/17 00:18:00;;;;;;;0.60;0.60;;;16.50;99.90;;;;;;5036646;28;20202;-68
2023/07/17 00:20:26;;;;;;;3.20;0.93;;;16.50;99.90;;;;;;5036743;28;20624;-68
2023/07/17 00:22:51;;;;;;;0.70;0.70;;;16.40;99.90;;;;;;5036514;28;20190;-68
2023/07/17 00:25:17;;;;;;;0.80;0.80;;;16.50;99.90;;;;;;5036667;28;20503;-68
2023/07/17 00:27:43;;;;;;;0.60;0.60;;;16.50;99.90;;;;;;5036888;28;20266;-68
2023/07/17 00:30:09;;;;;;;10.00;1.50;;;16.50;99.90;;;;;;5036969;28;20174;-68
2023/07/17 00:32:34;;;;;;;0.90;0.90;;;16.50;99.90;;;;;;5036419;28;20233;-68
2023/07/17 00:35:00;;;;;;;1.37;1.27;;;16.60;99.90;;;;;;5036864;28;20193;-68
2023/07/17 00:37:25;;;;;;;1.33;1.23;;;16.70;99.90;;;;;;5036577;28;20240;-69
2023/07/17 00:39:51;;;;;;;1.00;1.00;;;16.80;99.90;;;;;;5036513;28;20641;-69
2023/07/17 00:42:17;;;;;;;0.93;0.93;;;16.80;99.90;;;;;;5036310;28;20263;-68
2023/07/17 00:44:43;;;;;;;1.77;1.67;;;16.70;99.90;;;;;;5036405;28;20438;-69
2023/07/17 00:47:10;;;;;;;0.90;0.90;;;16.80;99.90;;;;;;5018613;28;20190;-68
2023/07/17 00:49:36;;;;;;;1.60;1.10;;;16.80;99.90;;;;;;5036393;28;20175;-68
2023/07/17 00:52:04;;;;;;;1.83;1.40;;;16.70;99.90;;;;;;5036098;28;20466;-68
2023/07/17 00:54:32;;;;;;;1.33;1.20;;;16.70;99.90;;;;;;5036420;28;20455;-68
2023/07/17 00:56:59;;;;;;;3.23;1.70;;;16.70;99.90;;;;;;5036209;28;20433;-68
2023/07/17 00:59:26;;;;;;;0.80;0.80;;;16.70;99.90;;;;;;5036291;28;20445;-68
2023/07/17 01:01:52;;;;;;;1.93;1.27;;;16.70;99.90;;;;;;5036030;28;20416;-68
2023/07/17 01:04:18;;;;;;;0.90;0.90;;;16.80;99.90;;;;;;5036056;28;20909;-67
2023/07/17 01:06:43;;;;;;;1.80;0.80;;;16.80;99.90;;;;;;5036105;28;20651;-69
2023/07/17 01:09:11;;;;;;;1.00;0.93;;;16.80;99.90;;;;;;5036697;28;20167;-68
2023/07/17 01:11:36;;;;;;;0.87;0.87;;;16.80;99.90;;;;;;5035251;28;20167;-68
2023/07/17 01:14:02;;;;;;;1.43;1.30;;;16.80;99.90;;;;;;5035937;28;20405;-68
2023/07/17 01:16:28;;;;;;;0.60;0.60;;;16.70;99.90;;;;;;5035834;28;20167;-68
2023/07/17 01:18:53;;;;;;;0.63;0.63;;;16.80;99.90;;;;;;5035662;28;20187;-68
2023/07/17 01:21:24;;;;;;;0.60;0.60;;;16.90;99.90;;;;;;5035595;28;20218;-68
2023/07/17 01:23:51;;;;;;;1.27;1.17;;;16.90;99.90;;;;;;5035944;28;20198;-68
2023/07/17 01:26:17;;;;;;;3.80;1.03;;;17.00;99.90;;;;;;5035663;28;20429;-67
2023/07/17 01:28:44;;;;;;;3.33;2.20;;;17.00;99.90;;;;;;5035621;28;20441;-68
2023/07/17 01:31:10;;;;;;;0.97;0.97;;;17.00;99.90;;;;;;5035579;28;20405;-68
2023/07/17 01:33:37;;;;;;;1.53;1.43;;;17.00;99.90;;;;;;5035581;28;20410;-69
2023/07/17 01:36:05;;;;;;;1.00;0.97;;;16.90;99.90;;;;;;5035659;28;20471;-68
2023/07/17 01:38:32;;;;;;;3.90;0.73;;;16.90;99.90;;;;;;5035339;28;20879;-68
2023/07/17 01:40:58;;;;;;;2.90;1.93;;;16.90;99.90;;;;;;5035092;28;20453;-68
2023/07/17 01:43:23;;;;;;;2.33;2.23;;;16.90;99.90;;;;;;5035428;28;20416;-67
2023/07/17 01:45:49;;;;;;;0.60;0.60;;;16.90;99.90;;;;;;5035343;28;20404;-68
2023/07/17 01:48:17;;;;;;;1.33;1.23;;;16.90;99.90;;;;;;5035243;28;20281;-68
2023/07/17 01:50:45;;;;;;;1.73;1.63;;;16.80;99.90;;;;;;5035311;28;20826;-68
2023/07/17 01:53:11;;;;;;;2.10;0.90;;;16.80;99.90;;;;;;5035378;28;20782;-68
2023/07/17 01:55:37;;;;;;;1.37;1.27;;;16.70;99.90;;;;;;5035180;28;20497;-68
2023/07/17 01:58:03;;;;;;;0.90;0.90;;;16.80;99.90;;;;;;5035230;28;20190;-69
2023/07/17 02:00:29;;;;;;;0.87;0.83;;;16.90;99.90;;;;;;5035071;28;20456;-68
2023/07/17 02:02:54;;;;;;;1.40;1.20;;;16.90;99.90;;;;;;5034893;28;20213;-68
2023/07/17 02:05:20;;;;;;;0.73;0.73;;;16.80;99.90;;;;;;5035131;28;20624;-68
2023/07/17 02:07:46;;;;;;;0.87;0.87;;;16.90;99.90;;;;;;5035021;28;20190;-68
2023/07/17 02:10:12;;;;;;;0.83;0.83;;;17.00;99.90;;;;;;5034820;28;20405;-68
2023/07/17 02:12:38;;;;;;;1.10;1.10;;;16.90;99.90;;;;;;5034704;28;20405;-68
2023/07/17 02:15:06;;;;;;;1.43;1.07;;;16.90;99.90;;;;;;5034866;28;20406;-68
2023/07/17 02:17:32;;;;;;;1.13;1.13;;;16.90;99.90;;;;;;5034472;28;20936;-68
2023/07/17 02:19:58;;;;;;;1.17;1.17;;;16.80;99.90;;;;;;5034736;28;20448;-67
2023/07/17 02:22:24;;;;;;;0.80;0.80;;;16.90;99.90;;;;;;5033805;28;20410;-68
2023/07/17 02:24:49;;;;;;;2.17;1.77;;;16.90;99.90;;;;;;5034484;28;20187;-68
2023/07/17 02:27:15;;;;;;;2.73;1.10;;;16.80;99.90;;;;;;5034624;28;20273;-68
2023/07/17 02:29:41;;;;;;;0.50;0.50;;;16.80;99.90;;;;;;5034687;28;20216;-67
2023/07/17 02:32:07;;;;;;;1.73;1.63;;;16.80;99.90;;;;;;5034096;28;20420;-67
2023/07/17 02:34:32;;;;;;;1.73;1.00;;;16.80;99.90;;;;;;5034414;28;20179;-68
2023/07/17 02:36:58;;;;;;;1.10;1.10;;;16.80;99.90;;;;;;5034336;28;20186;-69
2023/07/17 02:39:23;;;;;;;1.60;0.50;;;16.80;99.90;;;;;;5034255;28;20194;-68
2023/07/17 02:41:50;;;;;;;0.83;0.67;;;16.80;99.90;;;;;;5034028;28;20522;-68
2023/07/17 02:44:15;;;;;;;1.87;1.77;;;16.80;99.90;;;;;;5034273;28;20565;-69
2023/07/17 02:46:41;;;;;;;1.17;1.07;;;16.90;99.90;;;;;;5034188;28;20430;-68
2023/07/17 02:49:09;;;;;;;0.40;0.40;;;16.90;99.90;;;;;;5034144;28;20253;-68
2023/07/17 02:51:34;;;;;;;1.47;1.30;;;17.00;99.90;;;;;;5033995;28;20163;-68
2023/07/17 02:54:00;;;;;;;1.13;1.03;;;16.90;99.90;;;;;;5033927;28;20560;-68
2023/07/17 02:56:25;;;;;;;1.07;1.07;;;16.80;99.90;;;;;;5033937;28;20166;-67
2023/07/17 02:58:54;;;;;;;1.43;1.10;;;17.00;99.90;;;;;;5033967;28;20522;-68
2023/07/17 03:01:20;;;;;;;0.93;0.83;;;17.10;99.90;;;;;;5033730;28;20284;-68
2023/07/17 03:03:46;;;;;;;2.03;0.90;;;17.10;99.90;;;;;;5033957;28;20442;-68
2023/07/17 03:06:12;;;;;;;1.03;1.03;;;17.00;99.90;;;;;;5033709;28;20181;-68
2023/07/17 03:08:37;;;;;;;0.97;0.97;;;17.00;99.90;;;;;;5033722;28;20421;-68
2023/07/17 03:11:03;;;;;;;1.57;1.00;;;17.10;99.90;;;;;;5033575;28;20931;-67
2023/07/17 03:13:29;;;;;;;1.20;1.10;;;17.00;99.90;;;;;;5033714;28;20175;-68
2023/07/17 03:15:58;;;;;;;1.90;1.80;;;17.00;99.90;;;;;;5033808;28;20179;-68
2023/07/17 03:18:27;;;;;;;0.80;0.80;;;17.00;99.90;;;;;;5033527;28;20457;-68
2023/07/17 03:20:55;;;;;;;2.30;2.20;;;17.00;99.90;;;;;;5033282;28;20941;-68
2023/07/17 03:23:20;;;;;;;0.83;0.60;;;17.00;99.90;;;;;;5033837;28;20439;-67
2023/07/17 03:25:46;;;;;;;1.03;0.90;;;17.00;99.90;;;;;;5033521;28;20405;-68
2023/07/17 03:28:12;;;;;;;0.70;0.70;;;17.00;99.90;;;;;;5033435;28;20278;-68
2023/07/17 03:30:40;;;;;;;1.00;0.60;;;17.00;99.90;;;;;;5033478;28;20167;-67
2023/07/17 03:33:06;;;;;;;0.60;0.60;;;17.00;99.90;;;;;;5033433;28;20409;-68
2023/07/17 03:35:33;;;;;;;0.97;0.97;;;17.00;99.90;;;;;;5033278;28;20409;-68
2023/07/17 03:37:59;;;;;;;1.20;1.10;;;17.00;99.90;;;;;;5033332;28;20433;-69
2023/07/17 03:40:25;;;;;;;0.80;0.50;;;17.00;99.90;;;;;;5032651;28;20988;-68
2023/07/17 03:42:50;;;;;;;0.60;0.60;;;17.10;99.90;;;;;;5033349;28;20175;-68
2023/07/17 03:45:16;;;;;;;0.80;0.80;;;17.00;99.90;;;;;;5033173;28;20476;-68
2023/07/17 03:47:41;;;;;;;3.03;1.07;;;17.00;99.90;;;;;;5033240;28;20254;-68
2023/07/17 03:50:07;;;;;;;1.43;1.33;;;17.00;99.90;;;;;;5033367;28;20174;-68
2023/07/17 03:52:33;;;;;;;0.70;0.67;;;16.90;99.90;;;;;;5033259;28;20174;-68
2023/07/17 03:54:59;;;;;;;0.60;0.60;;;16.90;99.90;;;;;;5033195;28;20761;-68
2023/07/17 03:57:24;;;;;;;1.20;1.10;;;16.80;99.90;;;;;;5033275;28;20202;-68
2023/07/17 03:59:51;;;;;;;0.40;0.40;;;16.90;99.90;;;;;;5033077;28;20206;-68
2023/07/17 04:02:17;;;;;;;0.70;0.70;;;16.90;99.90;;;;;;5032994;28;20175;-68
2023/07/17 04:04:42;;;;;;;0.80;0.80;;;16.90;99.90;;;;;;5033112;28;20477;-68
2023/07/17 04:07:08;;;;;;;0.70;0.70;;;16.80;99.90;;;;;;5033092;28;21036;-68
2023/07/17 04:09:34;;;;;;;0.60;0.60;;;16.80;99.90;;;;;;5033069;28;20171;-68
2023/07/17 04:11:59;;;;;;;0.70;0.70;;;16.80;99.90;;;;;;5032830;28;20661;-68
2023/07/17 04:14:25;;;;;;;0.90;0.90;;;17.00;99.90;;;;;;5032902;28;20246;-68
2023/07/17 04:16:51;;;;;;;1.43;1.33;;;17.00;99.90;;;;;;5032898;28;20205;-68
2023/07/17 04:19:16;;;;;;;1.53;1.40;;;17.00;99.90;;;;;;5032841;28;20241;-68
2023/07/17 04:21:42;;;;;;;1.43;0.93;;;16.90;99.90;;;;;;5032890;28;20221;-68
2023/07/17 04:24:08;;;;;;;1.90;1.17;;;16.90;99.90;;;;;;5032878;28;20559;-68
2023/07/17 04:26:33;;;;;;;0.80;0.80;;;16.70;99.90;;;;;;5032833;28;20712;-69
2023/07/17 04:28:59;;;;;;;0.87;0.87;;;17.00;99.90;;;;;;5032102;28;20167;-68
2023/07/17 04:31:24;;;;;;;0.60;0.60;;;17.00;99.90;;;;;;5031780;28;20179;-68
2023/07/17 04:33:50;;;;;;;0.73;0.73;;;17.00;99.90;;;;;;5030853;28;20617;-68
2023/07/17 04:36:16;;;;;;;0.73;0.73;;;16.90;99.90;;;;;;5032515;28;20171;-68
2023/07/17 04:38:41;;;;;;;0.97;0.90;;;17.00;99.90;;;;;;5032110;28;20278;-68
2023/07/17 04:41:07;;;;;;;3.00;1.80;;;16.60;99.90;;;;;;5031922;28;20294;-67
2023/07/17 04:43:33;;;;;;;1.03;1.00;;;17.10;99.90;;;;;;5033021;28;20522;-68
2023/07/17 04:45:58;;;;;;;1.10;1.10;;;17.20;99.90;;;;;;5033405;28;20406;-68
2023/07/17 04:48:25;;;;;;;0.60;0.53;;;17.30;99.90;;;;;;5036321;28;20270;-68
2023/07/17 04:50:52;;;;;;;0.73;0.73;;;17.30;99.90;;;;;;5035890;28;20174;-68
2023/07/17 04:53:18;;;;;;;0.80;0.80;;;17.40;99.90;;;;;;5036559;28;20406;-68
2023/07/17 04:55:44;;;;;;;2.03;1.90;;;17.50;99.90;;;;;;5036162;28;20416;-68
2023/07/17 04:58:09;;;;;;;0.77;0.77;;;17.60;99.90;;;;;;5036097;28;20543;-67
2023/07/17 05:00:35;;;;;;;1.77;1.67;;;17.60;99.90;;;;;;5036325;28;20281;-68
2023/07/17 05:03:01;;;;;;;0.90;0.90;;;17.70;99.90;;;;;;5036079;28;20177;-68
2023/07/17 05:05:28;;;;;;;1.40;0.93;;;17.80;99.90;;;;;;5036580;28;20408;-68
2023/07/17 05:07:54;;;;;;;0.80;0.80;;;17.80;99.90;;;;;;5036675;28;20194;-68
2023/07/17 05:10:19;;;;;;;0.70;0.70;;;17.90;99.90;;;;;;5036095;28;20903;-68
2023/07/17 05:12:45;;;;;;;0.73;0.73;;;17.90;99.90;;;;;;5035906;28;20262;-68
2023/07/17 05:15:11;;;;;;;0.63;0.60;;;17.90;99.90;;;;;;5036158;28;20175;-69
2023/07/17 05:17:36;;;;;;;0.97;0.77;;;17.90;99.90;;;;;;5035722;28;20217;-68
2023/07/17 05:20:04;;;;;;;0.53;0.53;;;18.00;99.90;;;;;;5036254;28;20535;-68
2023/07/17 05:22:31;;;;;;;0.70;0.70;;;18.10;99.90;;;;;;5035484;28;20167;-68
2023/07/17 05:24:56;;;;;;;3.00;2.70;;;18.20;99.90;;;;;;5035812;28;20402;-68
2023/07/17 05:27:22;;;;;;;0.73;0.73;;;18.30;99.90;;;;;;5035373;28;20426;-69
2023/07/17 05:29:48;;;;;;;0.60;0.60;;;18.50;99.90;;;;;;5035840;28;20169;-69
2023/07/17 05:32:13;;;;;;;0.60;0.60;;;18.70;99.90;;;;;;5035516;28;20626;-69
2023/07/17 05:34:39;;;;;;;1.43;1.33;;;18.80;99.90;;;;;;5035179;28;20183;-69
2023/07/17 05:37:05;;;;;;;2.50;2.30;;;18.90;99.90;;;;;;5035207;28;20194;-69
2023/07/17 05:39:31;;;;;;;0.60;0.60;;;19.10;99.90;;;;;;5035659;28;20670;-68
2023/07/17 05:41:56;;;;;;;0.80;0.60;;;19.30;99.90;;;;;;5035357;28;20401;-69
2023/07/17 05:44:22;;;;;;;0.70;0.70;;;19.70;99.90;;;;;;5035656;28;20434;-69
2023/07/17 05:46:48;;;;;;;1.30;1.30;;;20.10;99.50;;;;;;5035482;28;20284;-70
2023/07/17 05:49:14;;;;;;;1.40;1.30;;;20.40;99.10;;;;;;5035811;28;20269;-70
2023/07/17 05:51:39;;;;;;;0.97;0.87;;;20.60;98.30;;;;;;5035375;28;20238;-71
2023/07/17 05:54:06;;;;;;;0.77;0.60;;;20.60;97.60;;;;;;5035648;28;20494;-69
2023/07/17 05:56:32;;;;;;;0.70;0.70;;;20.40;99.90;;;;;;5017380;28;20678;-69
2023/07/17 05:58:57;;;;;;;1.13;0.90;;;20.70;97.40;;;;;;5034174;28;20419;-70
2023/07/17 06:01:23;;;;;;;0.60;0.60;;;20.80;97.00;;;;;;5034921;28;20207;-69
2023/07/17 06:03:48;;;;;;;1.10;1.07;;;21.00;97.00;;;;;;5035396;28;20264;-70
2023/07/17 06:06:14;;;;;;;1.20;1.10;;;;;;;;;;5035482;28;20208;-69
2023/07/17 06:08:41;;;;;;;1.13;0.60;;;21.30;96.50;;;;;;5035503;28;20617;-70
2023/07/17 06:11:06;;;;;;;1.53;1.13;;;21.70;96.60;;;;;;5034848;28;20512;-70
2023/07/17 06:13:32;;;;;;;1.20;1.10;;;22.00;95.30;;;;;;5035080;28;20500;-70
2023/07/17 06:15:58;;;;;;;1.63;1.37;;;22.10;95.00;;;;;;5035150;28;20171;-70
2023/07/17 06:18:24;;;;;;;0.93;0.93;;;22.40;95.20;;;;;;5034703;28;20290;-70
2023/07/17 06:20:50;;;;;;;0.93;0.60;;;22.80;94.30;;;;;;5035008;28;20194;-70
2023/07/17 06:23:15;;;;;;;0.90;0.90;;;23.00;91.70;;;;;;5017921;28;20568;-71
2023/07/17 06:25:41;;;;;;;3.80;1.63;;;23.30;91.40;;;;;;5034079;28;20410;-70
2023/07/17 06:28:08;;;;;;;1.50;0.77;;;23.40;91.40;;;;;;5033867;28;20237;-69
2023/07/17 06:30:34;;;;;;;0.70;0.70;;;23.60;90.30;;;;;;5033714;28;20427;-70
2023/07/17 06:32:59;;;;;;;1.33;0.83;;;24.00;89.10;;;;;;5033975;28;20779;-70
2023/07/17 06:35:25;;;;;;;0.60;0.60;;;24.30;88.10;;;;;;5034356;28;20250;-70
2023/07/17 06:37:51;;;;;;;1.10;0.80;;;24.60;88.70;;;;;;5034709;28;20200;-72
2023/07/17 06:40:17;;;;;;;1.57;0.70;;;24.70;89.50;;;;;;5034222;28;20431;-71
2023/07/17 06:42:43;;;;;;;1.20;1.00;;;;;;;;;;5034135;28;20183;-70
2023/07/17 06:45:09;;;;;;;1.03;0.80;;;24.50;83.40;;;;;;5034068;28;20184;-72
2023/07/17 06:47:34;;;;;;;1.73;1.23;;;24.30;83.20;;;;;;5034024;28;20427;-71
2023/07/17 06:50:00;;;;;;;0.97;0.97;;;24.20;82.70;;;;;;5034490;28;20270;-71
2023/07/17 06:52:26;;;;;;;0.70;0.70;;;24.20;83.60;;;;;;5033905;28;20167;-70
2023/07/17 06:54:51;;;;;;;1.00;1.00;;;24.20;85.10;;;;;;5034114;28;20250;-72
2023/07/17 06:57:17;;;;;;;0.97;0.90;;;24.10;84.00;;;;;;5034582;28;20591;-71
2023/07/17 06:59:43;;;;;;;0.73;0.73;;;24.10;83.30;;;;;;5034349;28;20699;-71
2023/07/17 07:02:09;;;;;;;0.80;0.80;;;24.10;82.10;;;;;;5033909;28;20537;-70
2023/07/17 07:04:34;;;;;;;1.17;1.07;;;23.80;82.50;;;;;;5034124;28;20574;-70
2023/07/17 07:07:00;;;;;;;5.53;2.03;;;;;;;;;;5034459;28;20407;-71
2023/07/17 07:09:26;;;;;;;1.47;1.40;;;23.40;82.60;;;;;;5033589;28;20175;-71
2023/07/17 07:11:52;;;;;;;0.97;0.90;;;23.30;85.30;;;;;;5033809;28;20749;-71
2023/07/17 07:14:17;;;;;;;1.10;0.87;;;23.30;85.00;;;;;;5034108;28;20171;-70
2023/07/17 07:16:43;;;;;;;2.80;1.20;;;23.20;85.80;;;;;;5034126;28;20191;-71
2023/07/17 07:19:09;;;;;;;1.20;1.10;;;23.30;86.20;;;;;;5033566;28;20236;-71
2023/07/17 07:21:34;;;;;;;0.87;0.87;;;23.70;81.70;;;;;;5033663;28;20211;-71
2023/07/17 07:24:02;;;;;;;2.57;1.30;;;24.00;78.20;;;;;;5033758;28;20171;-71
2023/07/17 07:26:27;;;;;;;1.00;1.00;;;25.00;89.70;;;;;;5033564;28;20527;-71
2023/07/17 07:28:53;;;;;;;2.23;1.40;;;24.70;73.90;;;;;;5033937;28;20380;-71
2023/07/17 07:31:18;;;;;;;1.50;1.20;;;24.90;74.10;;;;;;5033661;28;20178;-71
2023/07/17 07:33:44;;;;;;;1.83;1.73;;;25.10;74.10;;;;;;5034056;28;20179;-70
2023/07/17 07:36:10;;;;;;;3.17;1.93;;;25.00;71.00;;;;;;5033834;28;20179;-71
2023/07/17 07:38:35;;;;;;;1.23;1.00;;;24.80;72.70;;;;;;5033610;28;20209;-71
2023/07/17 07:41:01;;;;;;;1.37;1.27;;;24.80;74.10;;;;;;5033309;28;20206;-71
2023/07/17 07:43:26;;;;;;;1.20;1.10;;;24.60;77.00;;;;;;5033707;28;20174;-71
2023/07/17 07:45:53;;;;;;;1.20;1.20;;;24.70;73.80;;;;;;5033794;28;20182;-72
2023/07/17 07:48:19;;;;;;;1.63;1.53;;;25.20;70.90;;;;;;5033871;28;20195;-71
2023/07/17 07:50:45;;;;;;;0.93;0.80;;;25.60;65.30;;;;;;5033517;28;20384;-71
2023/07/17 07:53:11;;;;;;;0.80;0.80;;;25.80;64.30;;;;;;5033528;28;20736;-71
2023/07/17 07:55:36;;;;;;;0.90;0.90;;;25.60;68.40;;;;;;5033549;28;20381;-71
2023/07/17 07:58:02;;;;;;;1.17;1.00;;;25.20;70.70;;;;;;5033164;28;20599;-71
2023/07/17 08:00:28;;;;;;;2.97;1.20;;;25.20;74.10;;;;;;5033287;28;20725;-71
2023/07/17 08:02:54;;;;;;;2.23;2.03;;;25.20;69.70;;;;;;5033399;28;20641;-71
2023/07/17 08:05:21;;;;;;;1.97;1.30;;;25.10;68.60;;;;;;5033361;28;20162;-70
2023/07/17 08:07:47;;;;;;;2.17;1.43;;;25.00;66.70;;;;;;5033138;28;20467;-71
2023/07/17 08:10:13;;;;;;;1.03;1.03;;;25.00;69.20;;;;;;5033331;28;20434;-71
2023/07/17 08:12:38;;;;;;;1.53;1.37;;;24.80;72.10;;;;;;5033320;28;20247;-70
2023/07/17 08:15:07;;;;;;;1.23;1.13;;;24.70;68.90;;;;;;5033328;28;20171;-71
2023/07/17 08:17:36;;;;;;;1.83;1.63;;;24.70;68.10;;;;;;5033436;28;20837;-71
2023/07/17 08:20:03;;;;;;;1.83;1.73;;;24.70;68.60;;;;;;5015239;28;20431;-71
2023/07/17 08:22:29;;;;;;;1.83;1.73;;;24.80;68.80;;;;;;5036147;28;20536;-72
2023/07/17 08:24:55;;;;;;;2.00;1.27;;;25.00;71.10;;;;;;5037004;28;20484;-71
2023/07/17 08:27:21;;;;;;;1.03;0.90;;;;;;;;;;5036954;28;20202;-72
2023/07/17 08:29:46;;;;;;;1.63;1.53;;;25.10;68.80;;;;;;5037352;28;20627;-71
2023/07/17 08:32:12;;;;;;;1.43;1.00;;;25.70;71.90;;;;;;5036639;28;20426;-71
2023/07/17 08:34:38;;;;;;;2.10;1.27;;;26.50;68.60;;;;;;5036691;28;20179;-72
2023/07/17 08:37:03;;;;;;;1.10;1.00;;;27.00;62.20;;;;;;5036941;28;20202;-71
2023/07/17 08:39:29;;;;;;;0.83;0.70;;;27.10;64.40;;;;;;5037067;28;20206;-71
2023/07/17 08:41:55;;;;;;;1.27;1.00;;;27.50;62.40;;;;;;5036468;28;20174;-70
2023/07/17 08:44:22;;;;;;;0.90;0.83;;;27.90;65.40;;;;;;5037038;28;20179;-71
2023/07/17 08:46:50;;;;;;;1.23;0.87;;;28.30;60.10;;;;;;5036926;28;20684;-72
2023/07/17 08:49:18;;;;;;;2.90;2.50;;;29.00;60.60;;;;;;5036504;28;20401;-72
2023/07/17 08:51:49;;;;;;;1.43;1.13;;;30.20;58.40;;;;;;5036549;28;20460;-72
2023/07/17 08:54:15;;;;;;;4.40;1.23;;;30.60;58.30;;;;;;5036290;28;20460;-71
2023/07/17 08:56:44;;;;;;;3.80;1.57;;;31.00;53.70;;;;;;5036137;28;20480;-71
2023/07/17 08:59:10;;;;;;;1.17;1.03;;;31.40;54.50;;;;;;5036646;28;20413;-72
2023/07/17 09:01:37;;;;;;;1.60;1.20;;;32.30;53.90;;;;;;5034811;28;20460;-72
2023/07/17 09:04:06;;;;;;;1.13;1.10;;;33.00;49.90;;;;;;5016378;28;20414;-72
2023/07/17 09:06:32;;;;;;;1.30;1.20;;;35.00;70.20;;;;;;5016202;28;20418;-72
2023/07/17 09:08:57;;;;;;;1.00;1.00;;;35.60;51.00;;;;;;5033956;28;20417;-73
2023/07/17 09:11:23;;;;;;;1.60;1.00;;;35.60;47.80;;;;;;5033784;28;20178;-73
2023/07/17 09:13:52;;;;;;;1.37;1.10;;;35.90;46.60;;;;;;5034059;28;20175;-72
2023/07/17 09:16:23;;;;;;;1.90;0.77;;;36.50;45.20;;;;;;5034673;28;20179;-72
2023/07/17 09:18:52;;;;;;;1.80;1.17;;;37.10;42.70;;;;;;5035945;28;20430;-73
2023/07/17 09:21:22;;;;;;;0.97;0.90;;;37.60;41.00;;;;;;5035825;28;20469;-71
2023/07/17 09:23:53;;;;;;;2.50;1.40;;;37.50;40.20;;;;;;5036137;28;20405;-71
2023/07/17 09:26:21;;;;;;;0.70;0.70;;;34.00;42.30;;;;;;5036216;28;20453;-71
2023/07/17 09:28:52;;;;;;;1.87;1.27;;;33.90;43.40;;;;;;5035728;28;20410;-71
2023/07/17 09:31:28;;;;;;;1.63;1.07;;;33.40;44.50;;;;;;5035117;28;20540;-73
2023/07/17 09:33:56;;;;;;;4.93;1.83;;;34.20;45.40;;;;;;5035607;28;20412;-72
2023/07/17 09:36:22;;;;;;;1.77;0.80;;;35.50;51.80;;;;;;5035526;28;20436;-72
2023/07/17 09:38:53;;;;;;;1.33;1.23;;;35.30;42.60;;;;;;5035520;28;20414;-72
2023/07/17 09:41:28;;;;;;;1.53;1.33;;;35.30;43.90;;;;;;5035408;28;20552;-72
2023/07/17 09:44:01;;;;;;;2.30;1.20;;;35.10;45.60;;;;;;5017798;28;20413;-72
2023/07/17 09:46:27;;;;;;;0.90;0.90;;;35.80;57.90;;;;;;5035758;28;20838;-71
2023/07/17 09:48:54;;;;;;;1.33;1.23;;;35.80;43.10;;;;;;5035340;28;20412;-72
2023/07/17 09:51:21;;;;;;;0.87;0.87;;;34.80;41.20;;;;;;5035222;28;20834;-72
2023/07/17 09:53:47;;;;;;;0.87;0.80;;;34.60;42.60;;;;;;5035216;28;20416;-71
2023/07/17 09:56:15;;;;;;;0.73;0.73;;;34.60;43.40;;;;;;5035169;28;20420;-71
2023/07/17 09:58:46;;;;;;;2.70;1.13;;;35.00;43.90;;;;;;5035237;28;20433;-71
2023/07/17 10:01:15;;;;;;;1.00;1.00;;;34.60;43.40;;;;;;5034984;28;20485;-72
2023/07/17 10:03:46;;;;;;;2.00;1.53;;;33.60;45.40;;;;;;5035188;28;20819;-71
2023/07/17 10:06:13;;;;;;;1.60;1.50;;;32.60;44.40;;;;;;5035470;28;20409;-72
2023/07/17 10:08:42;;;;;;;1.83;1.30;;;32.40;44.40;;;;;;5034743;28;20425;-71
2023/07/17 10:11:07;;;;;;;1.97;1.30;;;32.10;45.60;;;;;;5034772;28;20459;-71
2023/07/17 10:13:33;;;;;;;1.67;1.57;;;32.00;46.20;;;;;;5035105;28;20795;-72
2023/07/17 10:15:59;;;;;;;2.60;1.70;;;31.70;48.30;;;;;;5035021;28;20185;-71
2023/07/17 10:18:25;;;;;;;1.30;1.17;;;32.30;47.10;;;;;;5034621;28;20456;-72
2023/07/17 10:20:55;;;;;;;8.93;1.40;;;32.80;48.30;;;;;;5034477;28;20458;-71
2023/07/17 10:23:25;;;;;;;1.87;1.40;;;32.80;45.40;;;;;;5035129;28;20182;-72
2023/07/17 10:25:51;;;;;;;0.70;0.70;;;32.00;45.70;;;;;;5034774;28;20945;-71
2023/07/17 10:28:30;;;;;;;3.00;0.97;;;30.30;48.30;;;;;;5034710;28;20913;-71
2023/07/17 10:31:23;;;;;;;1.47;1.37;;;30.10;52.10;;;;;;5034650;28;20406;-72
2023/07/17 10:34:00;;;;;;;1.23;0.90;;;29.60;50.40;;;;;;5034627;28;20414;-71
2023/07/17 10:36:45;;;;;;;1.00;0.90;;;29.20;59.40;;;;;;5034570;28;20413;-71
2023/07/17 10:39:28;;;;;;;1.33;1.07;;;29.20;50.80;;;;;;5034397;28;20869;-72
2023/07/17 10:41:54;;;;;;;1.17;1.03;;;29.30;53.50;;;;;;5034319;28;20406;-72
2023/07/17 10:44:21;;;;;;;1.53;1.37;;;29.90;50.60;;;;;;5033815;28;20401;-72
2023/07/17 10:46:47;;;;;;;1.67;1.10;;;29.90;47.70;;;;;;5034381;28;20186;-71
2023/07/17 10:49:15;;;;;;;2.60;1.23;;;29.00;51.10;;;;;;5034277;28;20472;-71
2023/07/17 10:51:44;;;;;;;1.60;1.27;;;29.20;52.10;;;;;;5034045;28;20402;-72
2023/07/17 10:54:10;;;;;;;2.13;1.23;;;29.10;49.90;;;;;;5033977;28;20493;-72
2023/07/17 10:56:37;;;;;;;1.33;1.23;;;29.30;65.00;;;;;;5016178;28;20920;-71
2023/07/17 10:59:04;;;;;;;2.10;1.07;;;29.20;49.70;;;;;;5034157;28;20480;-71
2023/07/17 11:01:32;;;;;;;1.60;1.40;;;29.10;49.90;;;;;;5033738;28;20460;-71
2023/07/17 11:03:58;;;;;;;1.03;0.90;;;29.20;54.10;;;;;;5033823;28;20444;-72
2023/07/17 11:06:26;;;;;;;1.10;1.00;;;28.40;66.30;;;;;;5034035;28;20433;-72
2023/07/17 11:08:54;;;;;;;0.80;0.80;;;28.60;55.40;;;;;;5033125;28;20242;-71
2023/07/17 11:11:20;;;;;;;1.87;1.77;;;28.20;51.40;;;;;;5032767;28;20496;-72
2023/07/17 11:13:47;;;;;;;1.47;1.37;;;27.60;51.40;;;;;;5032926;28;20464;-72
2023/07/17 11:16:13;;;;;;;0.83;0.83;;;27.50;56.00;;;;;;5033261;28;20387;-72
2023/07/17 11:18:47;;;;;;;1.53;1.10;;;27.70;58.50;;;;;;5031677;28;20451;-72
2023/07/17 11:21:13;;;;;;;1.77;1.20;;;27.60;53.60;;;;;;5031708;28;20943;-71
2023/07/17 11:23:53;;;;;;;2.37;0.97;;;27.70;56.60;;;;;;5032059;28;20464;-72
2023/07/17 11:26:38;;;;;;;1.67;1.23;;;27.80;55.20;;;;;;5032909;28;20872;-71
2023/07/17 11:29:03;;;;;;;1.67;1.10;;;28.00;52.60;;;;;;5032909;28;20420;-72
2023/07/17 11:31:31;;;;;;;1.37;0.77;;;27.90;53.00;;;;;;5032699;28;20987;-71
2023/07/17 11:33:58;;;;;;;1.13;1.03;;;27.80;52.80;;;;;;5033381;28;20661;-71
2023/07/17 11:36:42;;;;;;;1.47;1.37;;;27.60;62.10;;;;;;5015976;28;20418;-72
2023/07/17 11:39:15;;;;;;;2.50;1.50;;;27.30;51.20;;;;;;5033533;28;20368;-71
2023/07/17 11:41:50;;;;;;;1.90;1.00;;;27.30;53.30;;;;;;5033095;28;20453;-72
2023/07/17 11:44:29;;;;;;;1.53;1.10;;;27.50;56.70;;;;;;5033531;28;20376;-72
2023/07/17 11:47:06;;;;;;;1.47;1.10;;;27.70;53.70;;;;;;5033653;28;20479;-71
2023/07/17 11:49:37;;;;;;;1.70;1.27;;;28.00;53.90;;;;;;5033299;28;20405;-72
2023/07/17 11:52:03;;;;;;;1.23;0.97;;;28.30;51.40;;;;;;5033182;28;21020;-71
2023/07/17 11:54:49;;;;;;;1.47;1.37;;;28.10;52.40;;;;;;5033334;28;20422;-71
2023/07/17 11:57:15;;;;;;;5.23;1.33;;;28.00;52.50;;;;;;5037187;28;20441;-71
2023/07/17 11:59:45;;;;;;;2.27;1.43;;;27.70;53.50;;;;;;5037358;28;20408;-72
2023/07/17 12:02:11;;;;;;;1.03;0.97;;;27.40;55.40;;;;;;5037424;28;20257;-72
2023/07/17 12:04:40;;;;;;;2.20;1.10;;;27.30;56.90;;;;;;5037488;28;20829;-73
2023/07/17 12:07:06;;;;;;;1.90;1.13;;;27.50;54.30;;;;;;5037310;28;20178;-72
2023/07/17 12:09:32;;;;;;;1.77;1.37;;;27.70;54.70;;;;;;5037341;28;20763;-72
2023/07/17 12:11:57;;;;;;;1.80;1.17;;;27.50;51.20;;;;;;5036833;28;20372;-72
2023/07/17 12:14:23;;;;;;;2.80;1.20;;;27.40;52.90;;;;;;5037273;28;20626;-72
2023/07/17 12:16:49;;;;;;;1.17;1.10;;;27.20;54.50;;;;;;5037297;28;20209;-71
2023/07/17 12:19:15;;;;;;;2.00;1.00;;;27.20;54.20;;;;;;5036849;28;20193;-72
2023/07/17 12:21:41;;;;;;;1.77;1.67;;;27.20;53.70;;;;;;5036661;28;20276;-71
2023/07/17 12:24:06;;;;;;;1.07;0.80;;;27.00;53.40;;;;;;5036919;28;20707;-72
2023/07/17 12:26:32;;;;;;;1.30;0.90;;;26.80;71.60;;;;;;5036835;28;20409;-72
2023/07/17 12:28:58;;;;;;;1.23;0.90;;;26.80;54.10;;;;;;5036841;28;20543;-72
2023/07/17 12:31:24;;;;;;;1.47;1.13;;;26.80;53.90;;;;;;5036625;28;20721;-72
2023/07/17 12:33:49;;;;;;;1.20;1.10;;;26.70;53.90;;;;;;5036871;28;20171;-71
2023/07/17 12:36:15;;;;;;;1.50;1.30;;;26.70;53.90;;;;;;5036731;28;20384;-71
2023/07/17 12:38:41;;;;;;;1.27;0.70;;;26.80;54.00;;;;;;5036532;28;20194;-72
2023/07/17 12:41:06;;;;;;;1.43;1.13;;;26.90;54.30;;;;;;5036320;28;20297;-71
2023/07/17 12:43:32;;;;;;;1.80;1.17;;;27.00;53.10;;;;;;5036626;28;20250;-71
2023/07/17 12:45:58;;;;;;;1.03;1.03;;;26.90;53.50;;;;;;5036528;28;20171;-72